地図

経路データ

SID SEASON NUMBER BASIN SUBBASIN NAME ISO_TIME NATURE LAT LON WMO_WIND WMO_PRES WMO_AGENCY TRACK_TYPE DIST2LAND LANDFALL IFLAG USA_AGENCY USA_ATCF_ID USA_LAT USA_LON USA_RECORD USA_STATUS USA_WIND USA_PRES USA_SSHS USA_R34_NE USA_R34_SE USA_R34_SW USA_R34_NW USA_R50_NE USA_R50_SE USA_R50_SW USA_R50_NW USA_R64_NE USA_R64_SE USA_R64_SW USA_R64_NW USA_POCI USA_ROCI USA_RMW USA_EYE TOKYO_LAT TOKYO_LON TOKYO_GRADE TOKYO_WIND TOKYO_PRES TOKYO_R50_DIR TOKYO_R50_LONG TOKYO_R50_SHORT TOKYO_R30_DIR TOKYO_R30_LONG TOKYO_R30_SHORT TOKYO_LAND CMA_LAT CMA_LON CMA_CAT CMA_WIND CMA_PRES HKO_LAT HKO_LON HKO_CAT HKO_WIND HKO_PRES NEWDELHI_LAT NEWDELHI_LON NEWDELHI_GRADE NEWDELHI_WIND NEWDELHI_PRES NEWDELHI_CI NEWDELHI_DP NEWDELHI_POCI REUNION_LAT REUNION_LON REUNION_TYPE REUNION_WIND REUNION_PRES REUNION_TNUM REUNION_CI REUNION_RMW REUNION_R34_NE REUNION_R34_SE REUNION_R34_SW REUNION_R34_NW REUNION_R50_NE REUNION_R50_SE REUNION_R50_SW REUNION_R50_NW REUNION_R64_NE REUNION_R64_SE REUNION_R64_SW REUNION_R64_NW BOM_LAT BOM_LON BOM_TYPE BOM_WIND BOM_PRES BOM_TNUM BOM_CI BOM_RMW BOM_R34_NE BOM_R34_SE BOM_R34_SW BOM_R34_NW BOM_R50_NE BOM_R50_SE BOM_R50_SW BOM_R50_NW BOM_R64_NE BOM_R64_SE BOM_R64_SW BOM_R64_NW BOM_ROCI BOM_POCI BOM_EYE BOM_POS_METHOD BOM_PRES_METHOD NADI_LAT NADI_LON NADI_CAT NADI_WIND NADI_PRES WELLINGTON_LAT WELLINGTON_LON WELLINGTON_WIND WELLINGTON_PRES DS824_LAT DS824_LON DS824_STAGE DS824_WIND DS824_PRES TD9636_LAT TD9636_LON TD9636_STAGE TD9636_WIND TD9636_PRES TD9635_LAT TD9635_LON TD9635_WIND TD9635_PRES TD9635_ROCI NEUMANN_LAT NEUMANN_LON NEUMANN_CLASS NEUMANN_WIND NEUMANN_PRES MLC_LAT MLC_LON MLC_CLASS MLC_WIND MLC_PRES USA_GUST BOM_GUST BOM_GUST_PER REUNION_GUST REUNION_GUST_PER USA_SEAHGT USA_SEARAD_NE USA_SEARAD_SE USA_SEARAD_SW USA_SEARAD_NW STORM_SPEED STORM_DIR
1995233N15261 1995 48 EP MM GIL 1995-08-20 18:00:00 TS 15.5000 -99.1000 30 1007 hurdat_epa main 104 104 O_____________ hurdat_epa EP081995 15.5000 -99.1000 TD 30 1007 -1 8 287
1995233N15261 1995 48 EP MM GIL 1995-08-20 21:00:00 TS 15.6098 -99.4824 main 123 111 P_____________ EP081995 15.6098 -99.4824 TD 32 1006 -1 9 283
1995233N15261 1995 48 EP MM GIL 1995-08-21 00:00:00 TS 15.7000 -100.000 35 1005 hurdat_epa main 116 116 O_____________ hurdat_epa EP081995 15.7000 -100.000 TS 35 1005 0 12 277
1995233N15261 1995 48 EP MM GIL 1995-08-21 03:00:00 TS 15.7579 -100.728 main 144 144 P_____________ EP081995 15.7579 -100.728 TS 40 1004 0 14 274
1995233N15261 1995 48 EP MM GIL 1995-08-21 06:00:00 TS 15.8000 -101.500 45 1004 hurdat_epa main 173 173 O_____________ hurdat_epa EP081995 15.8000 -101.500 TS 45 1004 0 13 274
1995233N15261 1995 48 EP MM GIL 1995-08-21 09:00:00 TS 15.8417 -102.078 main 198 195 P_____________ EP081995 15.8417 -102.078 TS 45 1004 0 12 275
1995233N15261 1995 48 EP MM GIL 1995-08-21 12:00:00 TS 15.9000 -102.700 45 1004 hurdat_epa main 227 227 O_____________ hurdat_epa EP081995 15.9000 -102.700 TS 45 1004 0 14 276
1995233N15261 1995 48 EP MM GIL 1995-08-21 15:00:00 TS 16.0003 -103.570 main 246 246 P_____________ EP081995 16.0003 -103.570 TS 45 1004 0 17 277
1995233N15261 1995 48 EP MM GIL 1995-08-21 18:00:00 TS 16.1000 -104.500 45 1004 hurdat_epa main 268 268 O_____________ hurdat_epa EP081995 16.1000 -104.500 TS 45 1004 0 17 276
1995233N15261 1995 48 EP MM GIL 1995-08-21 21:00:00 TS 16.1648 -105.338 main 302 302 P_____________ EP081995 16.1648 -105.338 TS 45 1004 0 15 274
1995233N15261 1995 48 EP MM GIL 1995-08-22 00:00:00 TS 16.2000 -106.100 45 1004 hurdat_epa main 362 362 O_____________ hurdat_epa EP081995 16.2000 -106.100 TS 45 1004 0 14 272
1995233N15261 1995 48 EP MM GIL 1995-08-22 03:00:00 TS 16.2223 -106.795 main 396 396 P_____________ EP081995 16.2223 -106.795 TS 45 1004 0 12 270
1995233N15261 1995 48 EP MM GIL 1995-08-22 06:00:00 TS 16.2000 -107.400 45 1004 hurdat_epa main 434 434 O_____________ hurdat_epa EP081995 16.2000 -107.400 TS 45 1004 0 11 264
1995233N15261 1995 48 EP MM GIL 1995-08-22 09:00:00 TS 16.1148 -107.938 main 477 477 P_____________ EP081995 16.1148 -107.938 TS 45 1004 0 10 258
1995233N15261 1995 48 EP MM GIL 1995-08-22 12:00:00 TS 16.0000 -108.400 45 1004 hurdat_epa main 523 523 O_____________ hurdat_epa EP081995 16.0000 -108.400 TS 45 1004 0 9 254
1995233N15261 1995 48 EP MM GIL 1995-08-22 15:00:00 TS 15.8773 -108.815 main 561 561 P_____________ EP081995 15.8773 -108.815 TS 45 1003 0 8 255
1995233N15261 1995 48 EP MM GIL 1995-08-22 18:00:00 TS 15.8000 -109.200 45 1003 hurdat_epa main 600 600 O_____________ hurdat_epa EP081995 15.8000 -109.200 TS 45 1003 0 8 265
1995233N15261 1995 48 EP MM GIL 1995-08-22 21:00:00 TS 15.8125 -109.615 main 630 630 P_____________ EP081995 15.8125 -109.615 TS 45 1002 0 8 277
1995233N15261 1995 48 EP MM GIL 1995-08-23 00:00:00 TS 15.9000 -110.000 45 1002 hurdat_epa main 654 654 O_____________ hurdat_epa EP081995 15.9000 -110.000 TS 45 1002 0 7 286
1995233N15261 1995 48 EP MM GIL 1995-08-23 03:00:00 TS 16.0049 -110.315 main 671 671 P_____________ EP081995 16.0049 -110.315 TS 45 1001 0 7 298
1995233N15261 1995 48 EP MM GIL 1995-08-23 06:00:00 TS 16.2000 -110.600 45 1000 hurdat_epa main 683 682 O_____________ hurdat_epa EP081995 16.2000 -110.600 TS 45 1000 0 8 312
1995233N15261 1995 48 EP MM GIL 1995-08-23 09:00:00 TS 16.5124 -110.893 main 691 682 P_____________ EP081995 16.5124 -110.893 TS 45 999 0 9 321
1995233N15261 1995 48 EP MM GIL 1995-08-23 12:00:00 TS 16.9000 -111.200 45 999 hurdat_epa main 682 645 O_____________ hurdat_epa EP081995 16.9000 -111.200 TS 45 999 0 10 322
1995233N15261 1995 48 EP MM GIL 1995-08-23 15:00:00 TS 17.2924 -111.528 main 645 614 P_____________ EP081995 17.2924 -111.528 TS 45 998 0 10 320
1995233N15261 1995 48 EP MM GIL 1995-08-23 18:00:00 TS 17.7000 -111.900 45 998 hurdat_epa main 614 587 O_____________ hurdat_epa EP081995 17.7000 -111.900 TS 45 998 0 11 317
1995233N15261 1995 48 EP MM GIL 1995-08-23 21:00:00 TS 18.1075 -112.335 main 587 566 P_____________ EP081995 18.1075 -112.335 TS 47 997 0 12 313
1995233N15261 1995 48 EP MM GIL 1995-08-24 00:00:00 TS 18.5000 -112.800 50 997 hurdat_epa main 571 557 O_____________ hurdat_epa EP081995 18.5000 -112.800 TS 50 997 0 12 312
1995233N15261 1995 48 EP MM GIL 1995-08-24 03:00:00 TS 18.8723 -113.243 main 557 554 P_____________ EP081995 18.8723 -113.243 TS 50 996 0 11 309
1995233N15261 1995 48 EP MM GIL 1995-08-24 06:00:00 TS 19.2000 -113.700 50 996 hurdat_epa main 564 563 O_____________ hurdat_epa EP081995 19.2000 -113.700 TS 50 996 0 11 304
1995233N15261 1995 48 EP MM GIL 1995-08-24 09:00:00 TS 19.4724 -114.193 main 577 577 P_____________ EP081995 19.4724 -114.193 TS 52 995 0 11 298
1995233N15261 1995 48 EP MM GIL 1995-08-24 12:00:00 TS 19.7000 -114.700 55 994 hurdat_epa main 604 604 O_____________ hurdat_epa EP081995 19.7000 -114.700 TS 55 994 0 10 295
1995233N15261 1995 48 EP MM GIL 1995-08-24 15:00:00 TS 19.9072 -115.185 main 621 618 P_____________ EP081995 19.9072 -115.185 TS 55 993 0 10 293
1995233N15261 1995 48 EP MM GIL 1995-08-24 18:00:00 TS 20.1000 -115.700 55 993 hurdat_epa main 633 633 O_____________ hurdat_epa EP081995 20.1000 -115.700 TS 55 993 0 12 290
1995233N15261 1995 48 EP MM GIL 1995-08-24 21:00:00 TS 20.3079 -116.337 main 654 654 P_____________ EP081995 20.3079 -116.337 TS 55 993 0 12 290
1995233N15261 1995 48 EP MM GIL 1995-08-25 00:00:00 TS 20.5000 -116.900 55 994 hurdat_epa main 680 680 O_____________ hurdat_epa EP081995 20.5000 -116.900 TS 55 994 0 9 293
1995233N15261 1995 48 EP MM GIL 1995-08-25 03:00:00 TS 20.6495 -117.188 main 695 687 P_____________ EP081995 20.6495 -117.188 TS 55 994 0 6 303
1995233N15261 1995 48 EP MM GIL 1995-08-25 06:00:00 TS 20.8000 -117.400 55 994 hurdat_epa main 695 695 O_____________ hurdat_epa EP081995 20.8000 -117.400 TS 55 994 0 6 304
1995233N15261 1995 48 EP MM GIL 1995-08-25 09:00:00 TS 21.0000 -117.735 main 705 705 P_____________ EP081995 21.0000 -117.735 TS 55 994 0 8 301
1995233N15261 1995 48 EP MM GIL 1995-08-25 12:00:00 TS 21.2000 -118.100 55 995 hurdat_epa main 725 725 O_____________ hurdat_epa EP081995 21.2000 -118.100 TS 55 995 0 8 297
1995233N15261 1995 48 EP MM GIL 1995-08-25 15:00:00 TS 21.3500 -118.458 main 753 747 P_____________ EP081995 21.3500 -118.458 TS 55 996 0 7 295
1995233N15261 1995 48 EP MM GIL 1995-08-25 18:00:00 TS 21.5000 -118.800 55 997 hurdat_epa main 768 768 O_____________ hurdat_epa EP081995 21.5000 -118.800 TS 55 997 0 7 300
1995233N15261 1995 48 EP MM GIL 1995-08-25 21:00:00 TS 21.7150 -119.137 main 776 771 P_____________ EP081995 21.7150 -119.137 TS 52 998 0 7 306
1995233N15261 1995 48 EP MM GIL 1995-08-26 00:00:00 TS 21.9000 -119.400 50 1000 hurdat_epa main 778 776 O_____________ hurdat_epa EP081995 21.9000 -119.400 TS 50 1000 0 5 306
1995233N15261 1995 48 EP MM GIL 1995-08-26 03:00:00 TS 21.9799 -119.530 main 776 776 P_____________ EP081995 21.9799 -119.530 TS 45 1002 0 2 299
1995233N15261 1995 48 EP MM GIL 1995-08-26 06:00:00 TS 22.0000 -119.600 40 1005 hurdat_epa main 783 783 O_____________ hurdat_epa EP081995 22.0000 -119.600 TS 40 1005 0 2 280
1995233N15261 1995 48 EP MM GIL 1995-08-26 09:00:00 TS 22.0075 -119.700 main 789 789 P_____________ EP081995 22.0075 -119.700 TS 37 1006 0 2 270
1995233N15261 1995 48 EP MM GIL 1995-08-26 12:00:00 TS 22.0000 -119.800 35 1008 hurdat_epa main 796 796 O_____________ hurdat_epa EP081995 22.0000 -119.800 TS 35 1008 0 2 268
1995233N15261 1995 48 EP MM GIL 1995-08-26 15:00:00 TS 22.0000 -119.908 main 803 803 P_____________ EP081995 22.0000 -119.908 TS 32 1008 -1 2 270
1995233N15261 1995 48 EP MM GIL 1995-08-26 18:00:00 TS 22.0000 -120.000 30 1009 hurdat_epa main 810 810 O_____________ hurdat_epa EP081995 22.0000 -120.000 TD 30 1009 -1 1 267
1995233N15261 1995 48 EP MM GIL 1995-08-26 21:00:00 TS 21.9925 -120.043 main 810 810 P_____________ EP081995 21.9925 -120.043 TD 27 1009 -1 1 270
1995233N15261 1995 48 EP MM GIL 1995-08-27 00:00:00 TS 22.0000 -120.100 25 1009 hurdat_epa main 817 817 O_____________ hurdat_epa EP081995 22.0000 -120.100 TD 25 1009 -1 2 274
1995233N15261 1995 48 EP MM GIL 1995-08-27 03:00:00 TS 22.0051 -120.257 main 831 829 P_____________ EP081995 22.0051 -120.257 TD 25 1009 -1 3 290
1995233N15261 1995 48 EP MM GIL 1995-08-27 06:00:00 TS 22.1000 -120.400 25 1009 hurdat_epa main 829 812 O_____________ hurdat_epa EP081995 22.1000 -120.400 TD 25 1009 -1 4 335
1995233N15261 1995 48 EP MM GIL 1995-08-27 09:00:00 TS 22.3525 -120.435 main 803 778 P_____________ EP081995 22.3525 -120.435 TD 25 1009 -1 6 0
1995233N15261 1995 48 EP MM GIL 1995-08-27 12:00:00 TS 22.7000 -120.400 25 1009 hurdat_epa main 778 O_____________ hurdat_epa EP081995 22.7000 -120.400 TD 25 1009 -1 7 6

IBTrACS Databaseについて

本データベースは、米国NOAAが公開する1842年以降の世界の熱帯低気圧のベストトラックデータアーカイブInternational Best Track Archive for Climate Stewardship (IBTrACS)を、ウェブで閲覧しやすい形式に変換したものです。

最終更新日:2021-12-08